createdAt,value
2022-09-24T00:00:27.570Z,100208.50
2022-09-24T00:02:56.997Z,100220.91
2022-09-24T00:05:26.386Z,100222.56
2022-09-24T00:07:55.832Z,100221.38
2022-09-24T00:10:25.224Z,100210.22
2022-09-24T00:12:54.692Z,100206.25
2022-09-24T00:15:26.642Z,100211.41
2022-09-24T00:17:56.035Z,100211.41
2022-09-24T00:20:25.458Z,100214.50
2022-09-24T00:22:54.830Z,100205.72
2022-09-24T00:25:36.701Z,100206.56
2022-09-24T00:28:06.237Z,100203.75
2022-09-24T00:30:40.892Z,100209.81
2022-09-24T00:33:10.546Z,100204.63
2022-09-24T00:35:41.632Z,100205.91
2022-09-24T00:38:11.424Z,100202.31
2022-09-24T00:40:41.380Z,100199.97
2022-09-24T00:43:26.922Z,100197.50
2022-09-24T00:46:03.632Z,100193.94
2022-09-24T00:48:34.273Z,100189.59
2022-09-24T00:51:04.195Z,100195.25
2022-09-24T00:53:33.995Z,100191.75
2022-09-24T00:56:05.882Z,100197.66
2022-09-24T00:58:35.577Z,100196.84
2022-09-24T01:01:10.125Z,100192.06
2022-09-24T01:03:43.060Z,100195.66
2022-09-24T01:06:12.747Z,100193.63
2022-09-24T01:08:42.920Z,100193.63
2022-09-24T01:11:24.737Z,100191.81
2022-09-24T01:14:11.698Z,100188.19
2022-09-24T01:16:50.271Z,100198.59
2022-09-24T01:19:37.206Z,100193.56
2022-09-24T01:22:18.219Z,100201.22
2022-09-24T01:25:00.434Z,100205.53
2022-09-24T01:27:44.353Z,100195.69
2022-09-24T01:33:07.089Z,100188.63
2022-09-24T01:35:41.107Z,100187.81
2022-09-24T01:38:16.733Z,100192.94
2022-09-24T01:40:50.981Z,100189.72
2022-09-24T01:43:39.568Z,100182.50
2022-09-24T01:46:13.090Z,100179.81
2022-09-24T01:48:48.631Z,100177.47
2022-09-24T01:51:42.114Z,100173.88
2022-09-24T01:54:18.479Z,100173.22
2022-09-24T01:56:52.077Z,100178.38
2022-09-24T02:15:35.508Z,100160.06
2022-09-24T02:18:12.205Z,100158.88
2022-09-24T02:20:46.323Z,100158.13
2022-09-24T02:23:20.342Z,100159.34
2022-09-24T02:26:02.896Z,100163.69
2022-09-24T02:28:33.757Z,100145.91
2022-09-24T02:31:11.376Z,100145.47
2022-09-24T02:33:58.187Z,100152.16
2022-09-24T02:36:31.889Z,100151.75
2022-09-24T02:39:03.601Z,100145.81
2022-09-24T02:41:35.151Z,100155.31
2022-09-24T02:44:09.372Z,100154.50
2022-09-24T02:46:45.291Z,100147.72
2022-09-24T02:49:18.811Z,100146.91
2022-09-24T02:51:48.975Z,100145.38
2022-09-24T02:54:26.360Z,100142.25
2022-09-24T02:56:57.019Z,100154.09
2022-09-24T02:59:36.773Z,100152.19
2022-09-24T03:02:09.664Z,100135.28
2022-09-24T03:04:44.329Z,100147.59
2022-09-24T03:07:14.847Z,100151.13
2022-09-24T03:09:45.143Z,100147.59
2022-09-24T03:12:21.117Z,100149.91
2022-09-24T03:14:51.339Z,100137.69
2022-09-24T03:17:25.462Z,100142.81
2022-09-24T03:19:58.509Z,100140.44
2022-09-24T03:22:29.079Z,100139.66
2022-09-24T03:24:59.657Z,100150.72
2022-09-24T03:27:32.516Z,100147.22
2022-09-24T03:30:15.110Z,100133.75
2022-09-24T03:32:48.207Z,100120.63
2022-09-24T03:35:20.228Z,100136.88
2022-09-24T03:37:52.987Z,100131.69
2022-09-24T03:40:26.364Z,100136.78
2022-09-24T03:42:57.299Z,100104.31
2022-09-24T03:45:27.720Z,100128.81
2022-09-24T03:48:04.157Z,100128.03
2022-09-24T03:50:40.410Z,100127.31
2022-09-24T03:53:15.493Z,100130.44
2022-09-24T03:55:50.531Z,100121.34
2022-09-24T03:58:23.672Z,100134.78
2022-09-24T04:00:55.845Z,100124.06
2022-09-24T04:03:28.699Z,100117.34
2022-09-24T04:06:00.235Z,100124.50
2022-09-24T04:08:31.934Z,100132.00
2022-09-24T04:11:02.193Z,100121.69
2022-09-24T04:13:34.037Z,100120.50
2022-09-24T04:16:08.404Z,100114.94
2022-09-24T04:18:43.950Z,100130.75
2022-09-24T04:21:19.792Z,100115.69
2022-09-24T04:23:56.238Z,100138.63
2022-09-24T04:26:30.341Z,100119.63
2022-09-24T04:29:00.877Z,100133.50
2022-09-24T04:31:33.115Z,100134.69
2022-09-24T04:34:06.235Z,100128.75
2022-09-24T04:36:38.311Z,100129.63
2022-09-24T04:39:08.528Z,100118.16
2022-09-24T04:41:40.601Z,100111.03
2022-09-24T04:44:11.542Z,100122.56
2022-09-24T04:46:43.117Z,100115.41
2022-09-24T04:49:18.457Z,100116.59
2022-09-24T04:51:53.006Z,100109.53
2022-09-24T04:54:23.742Z,100111.53
2022-09-24T04:56:53.913Z,100113.53
2022-09-24T04:59:25.445Z,100107.19
2022-09-24T05:01:55.732Z,100105.25
2022-09-24T05:04:28.396Z,100096.16
2022-09-24T05:07:03.770Z,100095.38
2022-09-24T05:09:35.139Z,100109.63
2022-09-24T05:12:05.707Z,100110.38
2022-09-24T05:14:35.606Z,100103.66
2022-09-24T05:17:08.452Z,100113.94
2022-09-24T05:19:41.175Z,100111.97
2022-09-24T05:22:12.162Z,100111.22
2022-09-24T05:24:42.033Z,100125.16
2022-09-24T05:27:10.496Z,100114.84
2022-09-24T05:29:42.637Z,100122.34
2022-09-24T05:32:15.464Z,100128.72
2022-09-24T05:34:49.591Z,100123.09
2022-09-24T05:37:42.954Z,100126.72
2022-09-24T05:40:29.098Z,100129.91
2022-09-24T05:43:14.914Z,100139.06
2022-09-24T05:45:47.236Z,100138.28
2022-09-24T05:48:18.771Z,100135.16
2022-09-24T05:50:55.732Z,100133.94
2022-09-24T05:53:26.440Z,100121.28
2022-09-24T05:55:58.118Z,100146.59
2022-09-24T05:58:28.312Z,100151.81
2022-09-24T06:00:58.085Z,100141.88
2022-09-24T06:03:32.112Z,100150.97
2022-09-24T06:06:07.210Z,100150.94
2022-09-24T06:08:37.245Z,100152.53
2022-09-24T06:11:13.549Z,100138.66
2022-09-24T06:13:46.567Z,100157.28
2022-09-24T06:16:20.628Z,100151.69
2022-09-24T06:18:50.686Z,100155.69
2022-09-24T06:21:25.846Z,100152.09
2022-09-24T06:23:57.621Z,100138.19
2022-09-24T06:26:29.458Z,100138.91
2022-09-24T06:29:05.394Z,100143.97
2022-09-24T06:31:38.454Z,100138.41
2022-09-24T06:34:13.920Z,100152.19
2022-09-24T06:36:51.548Z,100144.69
2022-09-24T06:39:21.950Z,100148.56
2022-09-24T06:41:54.839Z,100157.59
2022-09-24T06:44:34.959Z,100146.16
2022-09-24T06:47:11.287Z,100144.47
2022-09-24T06:49:47.758Z,100159.38
2022-09-24T06:52:21.460Z,100153.47
2022-09-24T06:55:00.180Z,100152.00
2022-09-24T06:58:10.823Z,100159.09
2022-09-24T07:04:16.319Z,100156.72
2022-09-24T07:07:05.042Z,100151.09
2022-09-24T07:10:13.884Z,100149.28
2022-09-24T07:16:07.985Z,100145.13
2022-09-24T07:22:09.582Z,100154.66
2022-09-24T07:31:42.633Z,100150.75
2022-09-24T07:34:12.439Z,100140.28
2022-09-24T07:36:41.832Z,100150.78
2022-09-24T07:39:11.450Z,100150.97
2022-09-24T07:41:43.660Z,100153.22
2022-09-24T07:44:13.499Z,100155.47
2022-09-24T07:46:42.907Z,100159.19
2022-09-24T07:49:12.299Z,100159.84
2022-09-24T07:51:41.635Z,100161.66
2022-09-24T07:54:15.059Z,100159.34
2022-09-24T07:56:49.509Z,100154.69
2022-09-24T07:59:20.300Z,100154.56
2022-09-24T08:01:49.801Z,100154.47
2022-09-24T08:04:19.281Z,100150.06
2022-09-24T08:06:48.846Z,100148.38
2022-09-24T08:09:18.465Z,100151.78
2022-09-24T08:11:52.937Z,100157.19
2022-09-24T08:14:22.329Z,100158.75
2022-09-24T08:16:51.691Z,100162.56
2022-09-24T08:19:21.070Z,100161.31
2022-09-24T08:21:50.877Z,100165.47
2022-09-24T08:24:20.288Z,100162.56
2022-09-24T08:26:52.256Z,100169.94
2022-09-24T08:29:21.719Z,100169.28
2022-09-24T08:31:51.101Z,100169.97
2022-09-24T08:34:20.543Z,100176.22
2022-09-24T08:36:50.497Z,100165.84
2022-09-24T08:39:20.206Z,100166.88
2022-09-24T08:41:58.147Z,100165.66
2022-09-24T08:44:45.985Z,100167.78
2022-09-24T08:47:26.276Z,100165.59
2022-09-24T08:50:04.428Z,100160.91
2022-09-24T08:52:43.943Z,100170.66
2022-09-24T08:55:21.643Z,100167.22
2022-09-24T08:58:07.818Z,100176.25
2022-09-24T09:00:46.472Z,100175.16
2022-09-24T09:03:24.263Z,100179.16
2022-09-24T09:05:57.840Z,100187.94
2022-09-24T09:11:34.790Z,100185.63
2022-09-24T09:14:13.770Z,100188.06
2022-09-24T09:16:51.160Z,100184.47
2022-09-24T09:19:24.689Z,100184.94
2022-09-24T09:22:01.612Z,100190.69
2022-09-24T09:24:42.593Z,100191.34
2022-09-24T09:27:15.461Z,100187.09
2022-09-24T09:29:50.775Z,100186.06
2022-09-24T09:32:31.677Z,100190.88
2022-09-24T09:35:09.205Z,100191.53
2022-09-24T09:37:47.275Z,100189.66
2022-09-24T09:40:32.530Z,100188.28
2022-09-24T09:43:04.496Z,100185.84
2022-09-24T09:45:44.702Z,100187.97
2022-09-24T09:48:16.688Z,100188.50
2022-09-24T09:50:51.983Z,100192.91
2022-09-24T09:53:23.765Z,100191.69
2022-09-24T09:55:58.169Z,100193.94
2022-09-24T09:58:29.781Z,100192.69
2022-09-24T10:01:10.903Z,100197.44
2022-09-24T10:03:51.861Z,100195.16
2022-09-24T10:06:28.075Z,100186.41
2022-09-24T10:09:09.680Z,100189.72
2022-09-24T10:11:39.094Z,100183.19
2022-09-24T10:14:12.063Z,100199.88
2022-09-24T10:16:46.688Z,100192.28
2022-09-24T10:19:20.148Z,100192.50
2022-09-24T10:21:49.970Z,100184.16
2022-09-24T10:24:22.868Z,100185.72
2022-09-24T10:26:53.084Z,100192.03
2022-09-24T10:29:38.014Z,100188.44
2022-09-24T10:32:18.489Z,100182.03
2022-09-24T10:34:57.733Z,100183.53
2022-09-24T10:37:27.335Z,100187.72
2022-09-24T10:40:00.624Z,100176.16
2022-09-24T10:42:32.500Z,100183.00
2022-09-24T10:45:04.683Z,100187.84
2022-09-24T10:47:44.919Z,100180.88
2022-09-24T10:50:34.487Z,100183.47
2022-09-24T10:53:09.554Z,100182.66
2022-09-24T10:55:47.453Z,100186.50
2022-09-24T10:58:35.648Z,100189.22
2022-09-24T11:01:17.029Z,100191.09
2022-09-24T11:04:00.201Z,100191.16
2022-09-24T11:06:45.923Z,100191.81
2022-09-24T11:09:27.086Z,100190.44
2022-09-24T11:12:08.010Z,100187.75
2022-09-24T11:14:56.633Z,100178.03
2022-09-24T11:17:35.164Z,100179.50
2022-09-24T11:20:32.815Z,100178.69
2022-09-24T11:23:28.514Z,100184.16
2022-09-24T11:26:11.533Z,100178.50
2022-09-24T11:29:14.130Z,100175.31
2022-09-24T11:31:49.406Z,100179.03
2022-09-24T11:34:38.282Z,100186.09
2022-09-24T11:37:25.190Z,100183.72
2022-09-24T11:40:10.110Z,100175.25
2022-09-24T11:42:54.602Z,100177.69
2022-09-24T11:45:45.619Z,100181.34
2022-09-24T11:48:48.527Z,100177.22
2022-09-24T11:51:30.171Z,100185.94
2022-09-24T11:54:09.971Z,100175.09
2022-09-24T11:56:43.702Z,100175.81
2022-09-24T11:59:19.933Z,100175.47
2022-09-24T12:01:56.405Z,100174.75
2022-09-24T12:04:33.144Z,100171.72
2022-09-24T12:07:13.362Z,100168.28
2022-09-24T12:09:52.246Z,100167.44
2022-09-24T12:12:25.988Z,100165.13
2022-09-24T12:15:01.695Z,100168.59
2022-09-24T12:17:38.635Z,100163.84
2022-09-24T12:20:19.524Z,100168.72
2022-09-24T12:22:51.790Z,100167.13
2022-09-24T12:25:23.736Z,100164.47
2022-09-24T12:27:53.420Z,100168.72
2022-09-24T12:30:46.855Z,100162.94
2022-09-24T12:33:23.788Z,100168.53
2022-09-24T12:36:04.434Z,100171.53
2022-09-24T12:38:38.721Z,100174.25
2022-09-24T12:41:22.515Z,100177.06
2022-09-24T12:43:57.285Z,100166.50
2022-09-24T12:46:31.825Z,100170.69
2022-09-24T12:49:02.025Z,100175.59
2022-09-24T12:51:39.753Z,100168.25
2022-09-24T12:54:11.941Z,100173.41
2022-09-24T12:56:44.545Z,100168.16
2022-09-24T12:59:27.438Z,100165.19
2022-09-24T13:01:57.028Z,100164.03
2022-09-24T13:04:31.398Z,100161.50
2022-09-24T13:07:00.927Z,100163.50
2022-09-24T13:09:40.072Z,100163.13
2022-09-24T13:12:27.255Z,100155.78
2022-09-24T13:15:02.955Z,100168.13
2022-09-24T13:17:33.361Z,100166.66
2022-09-24T13:20:06.694Z,100169.94
2022-09-24T13:22:38.259Z,100158.09
2022-09-24T13:25:22.795Z,100162.22
2022-09-24T13:28:06.496Z,100165.00
2022-09-24T13:30:40.772Z,100161.59
2022-09-24T13:33:24.258Z,100145.16
2022-09-24T13:36:06.406Z,100156.69
2022-09-24T13:38:40.283Z,100164.38
2022-09-24T13:41:23.668Z,100159.25
2022-09-24T13:44:02.487Z,100157.75
2022-09-24T13:46:34.284Z,100155.47
2022-09-24T13:49:06.497Z,100158.50
2022-09-24T13:51:41.434Z,100165.50
2022-09-24T13:54:21.956Z,100162.91
2022-09-24T13:57:00.880Z,100164.84
2022-09-24T13:59:32.926Z,100169.53
2022-09-24T14:02:02.631Z,100171.34
2022-09-24T14:04:33.371Z,100161.66
2022-09-24T14:07:05.305Z,100166.41
2022-09-24T14:09:37.161Z,100162.09
2022-09-24T14:12:18.631Z,100171.81
2022-09-24T14:14:58.335Z,100164.19
2022-09-24T14:17:28.366Z,100167.63
2022-09-24T14:19:59.366Z,100160.53
2022-09-24T14:22:36.716Z,100169.88
2022-09-24T14:25:10.565Z,100170.81
2022-09-24T14:27:45.424Z,100172.03
2022-09-24T14:30:23.702Z,100171.16
2022-09-24T14:32:56.658Z,100177.84
2022-09-24T14:35:34.504Z,100172.13
2022-09-24T14:38:10.181Z,100179.25
2022-09-24T14:40:45.722Z,100178.09
2022-09-24T14:43:21.867Z,100175.72
2022-09-24T14:45:54.885Z,100177.31
2022-09-24T14:48:31.586Z,100183.38
2022-09-24T14:51:01.195Z,100184.22
2022-09-24T14:53:34.287Z,100184.75
2022-09-24T14:56:10.089Z,100170.97
2022-09-24T14:58:39.456Z,100182.84
2022-09-24T15:01:16.535Z,100184.28
2022-09-24T15:03:51.965Z,100176.84
2022-09-24T15:06:24.253Z,100176.22
2022-09-24T15:09:01.570Z,100174.56
2022-09-24T15:11:34.240Z,100168.03
2022-09-24T15:14:06.215Z,100176.94
2022-09-24T15:16:39.329Z,100175.81
2022-09-24T15:19:19.782Z,100177.66
2022-09-24T15:21:50.725Z,100174.06
2022-09-24T15:24:21.408Z,100164.53
2022-09-24T15:26:52.725Z,100168.59
2022-09-24T15:29:24.595Z,100169.50
2022-09-24T15:31:58.401Z,100166.63
2022-09-24T15:34:28.443Z,100168.13
2022-09-24T15:37:00.949Z,100161.16
2022-09-24T15:39:32.067Z,100166.03
2022-09-24T15:42:01.457Z,100163.78
2022-09-24T15:44:34.037Z,100169.44
2022-09-24T15:47:06.363Z,100170.72
2022-09-24T15:49:35.918Z,100162.47
2022-09-24T15:52:09.494Z,100165.16
2022-09-24T15:54:40.466Z,100166.22
2022-09-24T15:57:09.972Z,100161.25
2022-09-24T15:59:40.424Z,100151.63
2022-09-24T16:02:21.257Z,100157.09
2022-09-24T16:04:51.030Z,100159.03
2022-09-24T16:07:20.444Z,100154.66
2022-09-24T16:09:49.906Z,100163.03
2022-09-24T16:12:20.511Z,100163.00
2022-09-24T16:14:50.065Z,100157.69
2022-09-24T16:17:22.025Z,100147.41
2022-09-24T16:19:51.433Z,100157.34
2022-09-24T16:22:20.933Z,100166.28
2022-09-24T16:24:50.391Z,100165.50
2022-09-24T16:27:19.858Z,100175.88
2022-09-24T16:29:49.317Z,100180.22
2022-09-24T16:32:18.777Z,100179.03
2022-09-24T16:34:50.819Z,100180.03
2022-09-24T16:37:20.589Z,100186.00
2022-09-24T16:39:50.141Z,100184.13
2022-09-24T16:42:19.605Z,100184.66
2022-09-24T16:44:49.090Z,100182.44
2022-09-24T16:47:20.654Z,100177.00
2022-09-24T16:49:52.658Z,100186.63
2022-09-24T16:52:22.148Z,100189.81
2022-09-24T16:54:51.580Z,100195.09
2022-09-24T16:57:20.971Z,100202.75
2022-09-24T16:59:50.430Z,100194.84
2022-09-24T17:02:20.293Z,100196.13
2022-09-24T17:04:54.607Z,100199.69
2022-09-24T17:07:24.143Z,100200.59
2022-09-24T17:10:06.079Z,100201.81
2022-09-24T17:12:35.532Z,100208.28
2022-09-24T17:15:04.914Z,100210.28
2022-09-24T17:17:44.340Z,100217.88
2022-09-24T17:20:18.031Z,100208.38
2022-09-24T17:22:48.279Z,100204.94
2022-09-24T17:25:18.439Z,100214.47
2022-09-24T17:27:47.957Z,100216.13
2022-09-24T17:30:17.923Z,100221.38
2022-09-24T17:32:47.943Z,100218.25
2022-09-24T17:35:21.398Z,100220.63
2022-09-24T17:37:51.680Z,100222.25
2022-09-24T17:40:24.169Z,100221.88
2022-09-24T17:43:01.698Z,100231.88
2022-09-24T17:45:31.139Z,100238.25
2022-09-24T17:48:01.206Z,100232.72
2022-09-24T17:50:34.033Z,100242.72
2022-09-24T17:53:03.983Z,100239.88
2022-09-24T17:55:39.009Z,100237.91
2022-09-24T17:58:08.378Z,100241.13
2022-09-24T18:00:39.303Z,100249.84
2022-09-24T18:03:08.928Z,100250.66
2022-09-24T18:05:41.877Z,100259.78
2022-09-24T18:08:11.641Z,100258.22
2022-09-24T18:10:41.043Z,100261.81
2022-09-24T18:13:10.611Z,100265.78
2022-09-24T18:15:40.748Z,100263.78
2022-09-24T18:18:10.313Z,100266.97
2022-09-24T18:20:45.221Z,100267.34
2022-09-24T18:23:14.677Z,100270.94
2022-09-24T18:25:44.098Z,100263.03
2022-09-24T18:28:18.485Z,100266.97
2022-09-24T18:30:51.328Z,100265.78
2022-09-24T18:33:20.825Z,100274.53
2022-09-24T18:35:52.815Z,100271.38
2022-09-24T18:38:22.193Z,100268.22
2022-09-24T18:40:51.870Z,100271.00
2022-09-24T18:43:21.417Z,100268.63
2022-09-24T18:45:50.793Z,100266.63
2022-09-24T18:48:20.762Z,100265.81
2022-09-24T18:50:52.913Z,100266.22
2022-09-24T18:53:22.366Z,100267.81
2022-09-24T18:55:52.082Z,100263.03
2022-09-24T18:58:21.512Z,100267.81
2022-09-24T19:00:56.277Z,100264.63
2022-09-24T19:03:27.215Z,100262.28
2022-09-24T19:06:04.132Z,100266.22
2022-09-24T19:08:33.502Z,100260.25
2022-09-24T19:11:09.351Z,100263.84
2022-09-24T19:13:41.723Z,100259.47
2022-09-24T19:16:12.955Z,100264.25
2022-09-24T19:18:43.380Z,100259.47
2022-09-24T19:21:16.835Z,100263.84
2022-09-24T19:23:48.531Z,100262.69
2022-09-24T19:26:20.532Z,100260.69
2022-09-24T19:28:52.338Z,100262.69
2022-09-24T19:31:24.053Z,100259.53
2022-09-24T19:33:54.825Z,100262.31
2022-09-24T19:36:29.167Z,100266.69
2022-09-24T19:38:58.602Z,100260.31
2022-09-24T19:41:29.277Z,100257.53
2022-09-24T19:44:05.930Z,100259.91
2022-09-24T19:46:38.573Z,100254.78
2022-09-24T19:49:08.721Z,100253.19
2022-09-24T19:51:40.727Z,100254.00
2022-09-24T19:54:12.974Z,100250.88
2022-09-24T19:56:42.715Z,100250.03
2022-09-24T19:59:13.773Z,100234.97
2022-09-24T20:01:43.276Z,100240.53
2022-09-24T20:04:14.026Z,100236.56
2022-09-24T20:06:46.675Z,100233.38
2022-09-24T20:09:16.414Z,100233.38
2022-09-24T20:11:45.959Z,100227.81
2022-09-24T20:14:21.486Z,100227.06
2022-09-24T20:16:53.640Z,100231.41
2022-09-24T20:19:24.586Z,100229.47
2022-09-24T20:21:57.812Z,100223.16
2022-09-24T20:24:27.761Z,100228.28
2022-09-24T20:27:09.791Z,100225.91
2022-09-24T20:29:39.237Z,100231.88
2022-09-24T20:32:10.263Z,100230.69
2022-09-24T20:34:42.196Z,100219.19
2022-09-24T20:37:17.173Z,100227.91
2022-09-24T20:39:46.596Z,100229.88
2022-09-24T20:42:16.209Z,100226.75
2022-09-24T20:44:46.042Z,100229.09
2022-09-24T20:47:15.923Z,100229.13
2022-09-24T20:49:45.416Z,100218.81
2022-09-24T20:52:17.486Z,100223.97
2022-09-24T20:54:49.961Z,100228.31
2022-09-24T20:57:19.367Z,100226.34
2022-09-24T20:59:49.148Z,100224.34
2022-09-24T21:02:18.649Z,100223.97
2022-09-24T21:04:51.595Z,100224.75
2022-09-24T21:07:23.543Z,100226.75
2022-09-24T21:09:53.369Z,100221.19
2022-09-24T21:12:23.018Z,100231.47
2022-09-24T21:14:52.917Z,100223.16
2022-09-24T21:17:22.625Z,100219.19
2022-09-24T21:19:52.038Z,100231.09
2022-09-24T21:22:24.403Z,100227.50
2022-09-24T21:24:53.952Z,100228.72
2022-09-24T21:27:23.456Z,100225.53
2022-09-24T21:29:52.985Z,100225.97
2022-09-24T21:32:23.697Z,100231.91
2022-09-24T21:34:53.267Z,100234.66
2022-09-24T21:37:25.425Z,100237.44
2022-09-24T21:39:54.964Z,100243.41
2022-09-24T21:42:25.536Z,100238.25
2022-09-24T21:44:54.982Z,100239.81
2022-09-24T21:47:24.375Z,100238.22
2022-09-24T21:49:53.758Z,100235.09
2022-09-24T21:52:26.709Z,100233.50
2022-09-24T21:54:56.191Z,100236.28
2022-09-24T21:57:25.578Z,100237.84
2022-09-24T22:00:10.180Z,100241.03
2022-09-24T22:02:43.368Z,100232.72
2022-09-24T22:05:19.508Z,100234.31
2022-09-24T22:07:51.658Z,100233.09
2022-09-24T22:10:21.065Z,100234.72
2022-09-24T22:12:51.106Z,100235.09
2022-09-24T22:15:22.880Z,100237.47
2022-09-24T22:17:53.095Z,100232.28
2022-09-24T22:20:22.781Z,100228.34
2022-09-24T22:22:54.724Z,100231.09
2022-09-24T22:25:27.340Z,100236.69
2022-09-24T22:27:56.789Z,100237.50
2022-09-24T22:30:26.422Z,100224.41
2022-09-24T22:32:55.891Z,100225.19
2022-09-24T22:35:42.922Z,100222.41
2022-09-24T22:38:16.933Z,100227.94
2022-09-24T22:40:46.410Z,100231.09
2022-09-24T22:43:15.913Z,100229.53
2022-09-24T22:45:46.150Z,100228.34
2022-09-24T22:48:15.597Z,100229.50
2022-09-24T22:50:46.061Z,100225.53
2022-09-24T22:53:18.344Z,100217.59
2022-09-24T22:55:51.822Z,100223.97
2022-09-24T22:58:22.296Z,100223.56
2022-09-24T23:00:51.710Z,100219.16
2022-09-24T23:03:21.123Z,100220.78
2022-09-24T23:05:53.366Z,100212.06
2022-09-24T23:08:25.405Z,100215.22
2022-09-24T23:10:54.768Z,100221.97
2022-09-24T23:13:24.737Z,100223.91
2022-09-24T23:15:54.810Z,100212.00
2022-09-24T23:18:24.249Z,100224.28
2022-09-24T23:20:53.816Z,100219.94
2022-09-24T23:23:25.932Z,100214.00
2022-09-24T23:25:55.410Z,100209.63
2022-09-24T23:28:24.871Z,100212.81
2022-09-24T23:30:59.806Z,100212.84
2022-09-24T23:33:35.043Z,100210.47
2022-09-24T23:36:05.353Z,100211.22
2022-09-24T23:38:37.436Z,100204.88
2022-09-24T23:41:07.773Z,100208.81
2022-09-24T23:43:37.518Z,100203.28
2022-09-24T23:46:08.097Z,100205.63
2022-09-24T23:48:37.630Z,100209.22
2022-09-24T23:51:07.684Z,100205.66
2022-09-24T23:53:41.468Z,100207.66
2022-09-24T23:56:11.291Z,100204.03
2022-09-24T23:58:40.932Z,100204.84
